Terminal Aerodrome Forecast
Issued by NWS

Home | Current Version | Previous Version | Text Only | Print | Product List | Glossary On
Versions: 1 2 3 4 5 6 7 8 9 10 11 12 13 14 15 16 17 18 19 20 21 22
000
FTUS42 KTBW 070400 AAB
TAFLAL
TAF AMD
KLAL 070416Z 0704/0724 03011KT P6SM OVC007
     FM071500 03012KT P6SM SCT015 OVC025
     FM071800 06010KT P6SM SCT025 BKN050
      AMD NOT SKED TIL 071200=

USA.gov is the U.S. government's official web portal to all federal, state and local government web resources and services.